createdAt,value
2022-09-13T00:00:38.257Z,1000.2
2022-09-13T00:01:39.477Z,1000.2
2022-09-13T00:02:41.391Z,1000.2
2022-09-13T00:03:43.252Z,1000.1
2022-09-13T00:04:44.195Z,1000.1
2022-09-13T00:05:45.318Z,1000.1
2022-09-13T00:06:46.201Z,1000.1
2022-09-13T00:07:47.194Z,1000
2022-09-13T00:08:48.357Z,1000
2022-09-13T00:09:49.279Z,1000
2022-09-13T00:10:50.269Z,1000.1
2022-09-13T00:11:51.234Z,1000.1
2022-09-13T00:12:52.231Z,1000.1
2022-09-13T00:13:53.202Z,1000.1
2022-09-13T00:14:54.219Z,1000.1
2022-09-13T00:15:55.343Z,1000.1
2022-09-13T00:16:57.319Z,1000.1
2022-09-13T00:17:58.231Z,1000
2022-09-13T00:18:59.290Z,1000
2022-09-13T00:20:00.278Z,1000
2022-09-13T00:21:01.271Z,1000.1
2022-09-13T00:22:02.359Z,1000
2022-09-13T00:23:03.411Z,1000.1
2022-09-13T00:24:05.299Z,1000.1
2022-09-13T00:25:06.291Z,1000
2022-09-13T00:26:07.313Z,1000
2022-09-13T00:27:08.519Z,1000
2022-09-13T00:28:10.208Z,1000
2022-09-13T00:29:11.323Z,1000
2022-09-13T00:30:12.793Z,1000
2022-09-13T00:31:14.517Z,999.9
2022-09-13T00:32:16.372Z,999.9
2022-09-13T00:33:17.235Z,1000
2022-09-13T00:34:18.281Z,999.9
2022-09-13T00:35:19.251Z,1000
2022-09-13T00:36:20.231Z,999.9
2022-09-13T00:37:21.277Z,999.8
2022-09-13T00:38:22.232Z,999.9
2022-09-13T00:39:23.333Z,999.9
2022-09-13T00:40:24.276Z,999.9
2022-09-13T00:41:26.291Z,999.9
2022-09-13T00:42:27.252Z,999.9
2022-09-13T00:43:28.291Z,999.9
2022-09-13T00:44:29.372Z,999.9
2022-09-13T00:45:31.361Z,999.9
2022-09-13T00:46:32.439Z,999.9
2022-09-13T00:47:33.282Z,999.8
2022-09-13T00:48:34.291Z,999.9
2022-09-13T00:49:35.319Z,999.8
2022-09-13T00:50:36.331Z,999.8
2022-09-13T00:51:37.231Z,999.8
2022-09-13T00:52:38.454Z,999.9
2022-09-13T00:53:40.331Z,999.8
2022-09-13T00:54:42.318Z,999.9
2022-09-13T00:55:44.401Z,999.8
2022-09-13T00:56:46.472Z,999.8
2022-09-13T00:57:48.471Z,999.8
2022-09-13T00:58:50.371Z,999.9
2022-09-13T00:59:51.259Z,999.8
2022-09-13T01:03:43.273Z,999.8
2022-09-13T01:04:44.314Z,999.8
2022-09-13T01:05:45.278Z,999.8
2022-09-13T01:06:46.354Z,999.8
2022-09-13T01:07:47.255Z,999.8
2022-09-13T01:08:48.196Z,999.8
2022-09-13T01:09:49.315Z,999.8
2022-09-13T01:10:50.294Z,999.7
2022-09-13T01:11:51.322Z,999.8
2022-09-13T01:12:52.215Z,999.8
2022-09-13T01:13:53.275Z,999.8
2022-09-13T01:14:54.374Z,999.8
2022-09-13T01:15:55.634Z,999.8
2022-09-13T01:16:57.287Z,999.2
2022-09-13T01:17:58.314Z,999.6
2022-09-13T01:18:59.466Z,999.7
2022-09-13T01:20:01.477Z,999.7
2022-09-13T01:21:03.322Z,999.8
2022-09-13T01:22:04.301Z,999.8
2022-09-13T01:23:05.312Z,999.8
2022-09-13T01:24:07.274Z,999.7
2022-09-13T01:25:08.282Z,999.7
2022-09-13T01:26:09.334Z,999.7
2022-09-13T01:27:10.274Z,999.7
2022-09-13T01:28:11.295Z,999.7
2022-09-13T01:29:12.217Z,999.7
2022-09-13T01:30:13.337Z,999.7
2022-09-13T01:31:15.418Z,999.6
2022-09-13T01:32:16.422Z,999.6
2022-09-13T01:33:17.299Z,999.6
2022-09-13T01:34:18.391Z,999.6
2022-09-13T01:35:19.317Z,999.6
2022-09-13T01:36:20.294Z,999.7
2022-09-13T01:37:21.276Z,999.6
2022-09-13T01:38:22.274Z,999.6
2022-09-13T01:39:23.374Z,999.6
2022-09-13T01:40:24.406Z,999.5
2022-09-13T01:41:25.221Z,999.6
2022-09-13T01:42:26.354Z,999.5
2022-09-13T01:43:28.354Z,999.5
2022-09-13T01:44:29.283Z,999.7
2022-09-13T01:45:30.379Z,999.6
2022-09-13T01:46:31.294Z,999.5
2022-09-13T01:47:32.314Z,999.4
2022-09-13T01:48:33.394Z,999.4
2022-09-13T01:49:35.338Z,999.4
2022-09-13T01:50:36.394Z,999.5
2022-09-13T01:51:37.374Z,999.4
2022-09-13T01:52:38.292Z,999.4
2022-09-13T01:53:39.435Z,999.4
2022-09-13T01:54:41.295Z,999.4
2022-09-13T01:55:42.342Z,999.4
2022-09-13T01:56:43.338Z,999.3
2022-09-13T01:57:44.282Z,999.3
2022-09-13T01:58:45.782Z,999.3
2022-09-13T01:59:47.893Z,999.3
2022-09-13T02:00:49.470Z,999.3
2022-09-13T02:01:51.392Z,999.3
2022-09-13T02:02:52.275Z,999.2
2022-09-13T02:03:53.364Z,999.2
2022-09-13T02:04:54.346Z,999.3
2022-09-13T02:05:55.474Z,999.2
2022-09-13T02:06:57.374Z,999.2
2022-09-13T02:07:59.362Z,999.2
2022-09-13T02:09:00.321Z,999.1
2022-09-13T02:10:01.359Z,999.2
2022-09-13T02:11:02.252Z,999.1
2022-09-13T02:12:03.274Z,999.1
2022-09-13T02:13:04.347Z,999.1
2022-09-13T02:14:05.374Z,999
2022-09-13T02:15:06.393Z,999
2022-09-13T02:16:07.424Z,999
2022-09-13T02:17:08.255Z,999.1
2022-09-13T02:18:09.318Z,999
2022-09-13T02:19:11.363Z,999
2022-09-13T02:20:12.367Z,999
2022-09-13T02:21:13.508Z,999
2022-09-13T02:22:15.356Z,999
2022-09-13T02:23:16.394Z,999
2022-09-13T02:24:17.313Z,999
2022-09-13T02:25:18.395Z,999
2022-09-13T02:26:19.362Z,999
2022-09-13T02:27:20.322Z,998.9
2022-09-13T02:28:21.294Z,999
2022-09-13T02:29:22.354Z,999
2022-09-13T02:30:23.396Z,999
2022-09-13T02:31:24.940Z,998.9
2022-09-13T02:32:26.277Z,998.9
2022-09-13T02:33:27.296Z,998.9
2022-09-13T02:34:28.303Z,998.9
2022-09-13T02:35:29.304Z,998.9
2022-09-13T02:36:30.435Z,998.9
2022-09-13T02:37:32.354Z,998.9
2022-09-13T02:38:33.354Z,998.9
2022-09-13T02:39:34.274Z,998.9
2022-09-13T02:40:35.362Z,998.9
2022-09-13T02:41:36.374Z,998.9
2022-09-13T02:42:37.316Z,998.9
2022-09-13T02:43:38.315Z,998.9
2022-09-13T02:44:39.274Z,998.9
2022-09-13T02:45:40.336Z,998.9
2022-09-13T02:46:41.378Z,998.8
2022-09-13T02:47:42.404Z,998.8
2022-09-13T02:48:43.274Z,998.8
2022-09-13T02:49:44.315Z,998.8
2022-09-13T02:50:45.370Z,998.7
2022-09-13T02:51:47.404Z,998.8
2022-09-13T02:52:48.324Z,998.8
2022-09-13T02:53:49.315Z,998.7
2022-09-13T02:54:50.354Z,998.8
2022-09-13T02:55:51.375Z,998.7
2022-09-13T02:56:52.284Z,998.8
2022-09-13T02:57:53.314Z,998.7
2022-09-13T02:58:54.317Z,998.1
2022-09-13T02:59:55.317Z,998.5
2022-09-13T03:00:56.524Z,998.8
2022-09-13T03:01:58.504Z,998.6
2022-09-13T03:03:00.502Z,998.7
2022-09-13T03:04:02.395Z,998.8
2022-09-13T03:05:04.435Z,998.6
2022-09-13T03:06:06.464Z,998.6
2022-09-13T03:07:08.334Z,998.5
2022-09-13T03:08:09.277Z,998.5
2022-09-13T03:09:10.343Z,998.5
2022-09-13T03:10:11.322Z,998.5
2022-09-13T03:11:12.343Z,998.5
2022-09-13T03:12:13.463Z,998.5
2022-09-13T03:13:15.314Z,998.5
2022-09-13T03:14:16.314Z,998.5
2022-09-13T03:15:17.361Z,998.4
2022-09-13T03:16:18.398Z,998.4
2022-09-13T03:17:20.454Z,998.4
2022-09-13T03:18:22.394Z,998.4
2022-09-13T03:19:24.342Z,998.4
2022-09-13T03:20:25.354Z,998.5
2022-09-13T03:21:26.532Z,998.4
2022-09-13T03:22:28.534Z,998.4
2022-09-13T03:23:30.415Z,998.4
2022-09-13T03:24:32.340Z,998.3
2022-09-13T03:25:33.377Z,998.3
2022-09-13T03:26:35.534Z,997.3
2022-09-13T03:27:37.415Z,998.2
2022-09-13T03:28:38.335Z,998.3
2022-09-13T03:29:39.314Z,998.3
2022-09-13T03:30:40.394Z,998.3
2022-09-13T03:31:41.449Z,998.3
2022-09-13T03:32:42.454Z,998.2
2022-09-13T03:33:43.356Z,998.2
2022-09-13T03:34:44.392Z,998.2
2022-09-13T03:35:45.335Z,998.2
2022-09-13T03:36:46.401Z,998.2
2022-09-13T03:37:47.435Z,998.2
2022-09-13T03:38:48.398Z,998.2
2022-09-13T03:39:49.392Z,998.2
2022-09-13T03:40:50.461Z,998.2
2022-09-13T03:41:52.355Z,998.1
2022-09-13T03:42:53.324Z,998.1
2022-09-13T03:43:57.373Z,998.1
2022-09-13T03:44:58.365Z,998.1
2022-09-13T03:45:59.407Z,998.1
2022-09-13T03:47:00.443Z,998.2
2022-09-13T03:48:01.394Z,998.1
2022-09-13T03:49:02.354Z,998.1
2022-09-13T03:50:03.436Z,998.1
2022-09-13T03:51:04.354Z,998.1
2022-09-13T03:52:05.500Z,998.2
2022-09-13T03:53:06.402Z,998.2
2022-09-13T03:54:07.374Z,998.2
2022-09-13T03:55:08.362Z,998.2
2022-09-13T03:56:09.355Z,998.2
2022-09-13T03:57:10.405Z,998.1
2022-09-13T03:58:12.372Z,998.1
2022-09-13T03:59:14.502Z,998.2
2022-09-13T04:00:16.502Z,998.2
2022-09-13T04:01:18.546Z,998.1
2022-09-13T04:02:20.445Z,998.2
2022-09-13T04:03:21.354Z,998.1
2022-09-13T04:04:22.342Z,998.1
2022-09-13T04:05:23.375Z,998
2022-09-13T04:06:24.354Z,998
2022-09-13T04:07:25.419Z,998
2022-09-13T04:08:26.374Z,998.1
2022-09-13T04:09:27.354Z,997.8
2022-09-13T04:10:28.640Z,998
2022-09-13T04:11:30.374Z,998
2022-09-13T04:12:31.555Z,998
2022-09-13T04:13:33.394Z,998.1
2022-09-13T04:14:35.574Z,998.1
2022-09-13T04:15:37.474Z,998.1
2022-09-13T04:16:38.467Z,998.1
2022-09-13T04:17:39.575Z,998.1
2022-09-13T04:18:41.322Z,998.1
2022-09-13T04:19:42.482Z,998.1
2022-09-13T04:20:43.494Z,998
2022-09-13T04:21:44.414Z,998
2022-09-13T04:22:45.924Z,998
2022-09-13T04:23:47.515Z,998.1
2022-09-13T04:24:49.421Z,998
2022-09-13T04:25:50.414Z,998
2022-09-13T04:26:51.437Z,998.2
2022-09-13T04:27:52.557Z,998.1
2022-09-13T04:28:54.382Z,997.9
2022-09-13T04:29:55.335Z,998
2022-09-13T04:30:56.403Z,998
2022-09-13T04:31:57.355Z,998
2022-09-13T04:32:58.376Z,998
2022-09-13T04:33:59.321Z,998
2022-09-13T04:35:00.394Z,998
2022-09-13T04:36:01.367Z,998
2022-09-13T04:37:02.414Z,998
2022-09-13T04:38:03.417Z,998
2022-09-13T04:39:04.362Z,998
2022-09-13T04:40:05.405Z,998
2022-09-13T04:41:06.423Z,998.1
2022-09-13T04:42:07.413Z,997.8
2022-09-13T04:43:09.033Z,998
2022-09-13T04:44:10.675Z,998
2022-09-13T04:45:12.477Z,998.1
2022-09-13T04:46:14.388Z,997.5
2022-09-13T04:47:15.354Z,997.9
2022-09-13T04:48:16.415Z,998
2022-09-13T04:49:17.395Z,998
2022-09-13T04:50:18.355Z,998
2022-09-13T04:51:19.416Z,998
2022-09-13T04:52:20.395Z,997.9
2022-09-13T04:53:21.419Z,998
2022-09-13T04:54:22.394Z,998
2022-09-13T04:55:23.375Z,998
2022-09-13T04:56:24.394Z,998
2022-09-13T04:57:25.407Z,998
2022-09-13T04:58:26.340Z,998.1
2022-09-13T05:02:13.482Z,998
2022-09-13T05:03:15.336Z,998
2022-09-13T05:04:16.371Z,998.1
2022-09-13T05:05:17.379Z,998.2
2022-09-13T05:06:18.432Z,998.1
2022-09-13T05:07:20.499Z,998
2022-09-13T05:08:22.367Z,998
2022-09-13T05:09:23.573Z,998
2022-09-13T05:10:25.449Z,998
2022-09-13T05:11:27.425Z,998
2022-09-13T05:12:29.439Z,998
2022-09-13T05:13:31.459Z,998
2022-09-13T05:14:33.485Z,998
2022-09-13T05:15:35.383Z,998
2022-09-13T05:16:36.351Z,998
2022-09-13T05:17:37.419Z,998
2022-09-13T05:18:43.218Z,998
2022-09-13T05:19:40.362Z,998
2022-09-13T05:20:41.400Z,998
2022-09-13T05:21:43.459Z,998
2022-09-13T05:22:45.640Z,998
2022-09-13T05:23:47.527Z,998
2022-09-13T05:24:49.661Z,998
2022-09-13T05:25:51.419Z,997.9
2022-09-13T05:26:52.701Z,997.9
2022-09-13T05:27:54.400Z,997.9
2022-09-13T05:28:56.439Z,997.3
2022-09-13T05:29:57.619Z,997.8
2022-09-13T05:30:59.831Z,997.8
2022-09-13T05:32:01.681Z,997.9
2022-09-13T05:33:03.587Z,997.9
2022-09-13T05:34:06.613Z,997.9
2022-09-13T05:35:08.459Z,997.9
2022-09-13T05:36:10.449Z,998
2022-09-13T05:37:11.480Z,997.9
2022-09-13T05:38:13.443Z,997.8
2022-09-13T05:39:39.621Z,997.9
2022-09-13T05:40:16.818Z,997.9
2022-09-13T05:41:18.423Z,997.9
2022-09-13T05:42:19.380Z,997.8
2022-09-13T05:43:20.539Z,997.8
2022-09-13T05:44:21.559Z,997.8
2022-09-13T05:45:23.600Z,997.8
2022-09-13T05:46:26.196Z,997.7
2022-09-13T05:47:27.623Z,997.8
2022-09-13T05:48:29.503Z,997.7
2022-09-13T05:49:30.475Z,997.7
2022-09-13T05:50:56.594Z,997.7
2022-09-13T05:51:33.378Z,997.7
2022-09-13T05:52:34.420Z,997.7
2022-09-13T05:53:35.460Z,997.7
2022-09-13T05:54:36.380Z,997.7
2022-09-13T05:55:37.602Z,997.8
2022-09-13T05:56:39.398Z,997.8
2022-09-13T05:57:40.379Z,997.7
2022-09-13T05:58:41.419Z,997.7
2022-09-13T05:59:42.422Z,997.7
2022-09-13T06:00:43.779Z,997.7
2022-09-13T06:01:45.528Z,997.7
2022-09-13T06:02:47.928Z,997.7
2022-09-13T06:03:49.521Z,997.7
2022-09-13T06:04:50.358Z,997.6
2022-09-13T06:05:51.419Z,997.6
2022-09-13T06:06:52.428Z,997.6
2022-09-13T06:07:53.359Z,997.5
2022-09-13T06:08:54.385Z,997.5
2022-09-13T06:09:55.419Z,997.5
2022-09-13T06:10:56.484Z,997.5
2022-09-13T06:11:57.487Z,997.4
2022-09-13T06:12:59.119Z,997.5
2022-09-13T06:14:00.487Z,997.4
2022-09-13T06:15:02.644Z,997.5
2022-09-13T06:16:04.538Z,997.3
2022-09-13T06:17:06.587Z,997.3
2022-09-13T06:18:08.802Z,997.3
2022-09-13T06:19:10.680Z,997.3
2022-09-13T06:20:12.579Z,997.3
2022-09-13T06:21:13.459Z,997.3
2022-09-13T06:22:14.419Z,997.2
2022-09-13T06:23:15.380Z,997.2
2022-09-13T06:24:16.419Z,997.2
2022-09-13T06:25:17.418Z,997.2
2022-09-13T06:26:18.766Z,997.3
2022-09-13T06:27:21.059Z,997.3
2022-09-13T06:28:22.631Z,997.2
2022-09-13T06:29:24.459Z,997.2
2022-09-13T06:30:25.540Z,997.2
2022-09-13T06:31:26.622Z,997.2
2022-09-13T06:32:27.619Z,997.1
2022-09-13T06:33:29.664Z,997.1
2022-09-13T06:34:31.637Z,997.1
2022-09-13T06:35:33.447Z,997.2
2022-09-13T06:36:34.480Z,996.9
2022-09-13T06:37:35.501Z,997
2022-09-13T06:38:36.501Z,997.1
2022-09-13T06:39:37.562Z,997.1
2022-09-13T06:40:38.439Z,997.1
2022-09-13T06:41:39.487Z,997.1
2022-09-13T06:42:40.439Z,997.1
2022-09-13T06:43:41.680Z,996.6
2022-09-13T06:44:43.581Z,996.9
2022-09-13T06:45:44.580Z,997.1
2022-09-13T06:46:45.509Z,997.1
2022-09-13T06:47:46.523Z,997.1
2022-09-13T06:48:47.459Z,997.1
2022-09-13T06:49:48.520Z,997.1
2022-09-13T06:50:49.519Z,997.1
2022-09-13T06:51:50.430Z,997.1
2022-09-13T06:52:51.601Z,997.1
2022-09-13T06:53:52.406Z,997.1
2022-09-13T06:54:53.540Z,997.2
2022-09-13T06:55:54.442Z,997.1
2022-09-13T06:56:55.588Z,997.1
2022-09-13T06:57:56.479Z,997.1
2022-09-13T06:58:57.439Z,997.1
2022-09-13T06:59:59.022Z,997.1
2022-09-13T07:01:00.439Z,997.1
2022-09-13T07:02:01.516Z,997
2022-09-13T07:03:02.519Z,997
2022-09-13T07:04:03.425Z,997.1
2022-09-13T07:05:04.665Z,997
2022-09-13T07:06:06.522Z,997
2022-09-13T07:07:07.563Z,997
2022-09-13T07:08:09.527Z,997.1
2022-09-13T07:09:10.519Z,997.1
2022-09-13T07:10:11.559Z,997.1
2022-09-13T07:11:12.500Z,997.1
2022-09-13T07:12:16.602Z,997.2
2022-09-13T07:13:15.467Z,997.2
2022-09-13T07:14:16.499Z,996.9
2022-09-13T07:15:17.540Z,997.1
2022-09-13T07:16:19.594Z,997.1
2022-09-13T07:17:20.541Z,997.1
2022-09-13T07:18:21.539Z,997.2
2022-09-13T07:19:22.716Z,997.1
2022-09-13T07:20:24.497Z,997.1
2022-09-13T07:21:26.021Z,997.1
2022-09-13T07:22:27.719Z,997.1
2022-09-13T07:23:29.641Z,997.1
2022-09-13T07:24:31.461Z,997
2022-09-13T07:25:32.460Z,997
2022-09-13T07:26:33.507Z,997
2022-09-13T07:27:34.569Z,997.1
2022-09-13T07:28:35.654Z,997
2022-09-13T07:29:37.599Z,997
2022-09-13T07:30:38.979Z,997
2022-09-13T07:31:40.747Z,997.1
2022-09-13T07:32:42.499Z,997.1
2022-09-13T07:33:43.479Z,997.1
2022-09-13T07:34:44.497Z,997.1
2022-09-13T07:35:45.527Z,997.1
2022-09-13T07:36:46.555Z,997.1
2022-09-13T07:37:47.688Z,997.1
2022-09-13T07:38:49.782Z,997.1
2022-09-13T07:39:51.553Z,997.1
2022-09-13T07:40:52.460Z,997.1
2022-09-13T07:41:53.485Z,997.1
2022-09-13T07:42:54.639Z,997.1
2022-09-13T07:43:55.662Z,997.1
2022-09-13T07:44:57.539Z,997
2022-09-13T07:45:59.551Z,997
2022-09-13T07:47:00.460Z,997
2022-09-13T07:48:01.568Z,997.1
2022-09-13T07:49:02.519Z,997.1
2022-09-13T07:50:03.519Z,997.1
2022-09-13T07:51:04.522Z,997.1
2022-09-13T07:52:05.540Z,997.1
2022-09-13T07:53:06.479Z,997.1
2022-09-13T07:54:08.600Z,997.2
2022-09-13T07:55:09.540Z,997.2
2022-09-13T07:56:10.459Z,997.2
2022-09-13T07:57:11.509Z,997.1
2022-09-13T07:58:12.484Z,997.1
2022-09-13T07:59:13.456Z,997.1
2022-09-13T08:00:14.527Z,997.1
2022-09-13T08:01:15.517Z,997.1
2022-09-13T08:02:16.524Z,997.1
2022-09-13T08:03:17.504Z,997.1
2022-09-13T08:04:18.530Z,997.1
2022-09-13T08:05:19.519Z,997.1
2022-09-13T08:06:20.647Z,997.1
2022-09-13T08:07:21.604Z,997
2022-09-13T08:08:22.755Z,997.1
2022-09-13T08:09:24.449Z,997
2022-09-13T08:10:29.068Z,997
2022-09-13T08:11:30.500Z,997
2022-09-13T08:12:31.578Z,997
2022-09-13T08:13:32.479Z,997
2022-09-13T08:14:33.541Z,997
2022-09-13T08:15:34.608Z,996.9
2022-09-13T08:16:35.582Z,996.9
2022-09-13T08:17:36.659Z,996.9
2022-09-13T08:18:37.467Z,996.9
2022-09-13T08:19:39.267Z,996.9
2022-09-13T08:20:40.660Z,996.9
2022-09-13T08:21:41.499Z,996.9
2022-09-13T08:22:42.540Z,996.9
2022-09-13T08:23:43.592Z,996.9
2022-09-13T08:24:44.577Z,996.9
2022-09-13T08:25:45.527Z,996.9
2022-09-13T08:26:46.559Z,996.9
2022-09-13T08:27:47.547Z,996.9
2022-09-13T08:28:48.763Z,996.9
2022-09-13T08:29:50.748Z,996.8
2022-09-13T08:30:52.606Z,996.9
2022-09-13T08:31:53.579Z,996.8
2022-09-13T08:32:54.845Z,996.9
2022-09-13T08:33:56.580Z,996.9
2022-09-13T08:34:57.536Z,996.9
2022-09-13T08:35:58.581Z,996.9
2022-09-13T08:36:59.559Z,996.9
2022-09-13T08:38:00.629Z,996.9
2022-09-13T08:39:02.587Z,996.9
2022-09-13T08:40:03.681Z,996.8
2022-09-13T08:41:05.592Z,996.8
2022-09-13T08:42:06.518Z,996.9
2022-09-13T08:43:07.452Z,996.8
2022-09-13T08:44:08.623Z,996.7
2022-09-13T08:45:09.619Z,996.8
2022-09-13T08:46:10.653Z,996.8
2022-09-13T08:47:11.768Z,996.7
2022-09-13T08:48:13.750Z,996.7
2022-09-13T08:49:16.430Z,996.3
2022-09-13T08:50:16.607Z,996.7
2022-09-13T08:51:17.561Z,996.8
2022-09-13T08:52:18.540Z,996.8
2022-09-13T08:53:19.575Z,996.8
2022-09-13T08:54:20.506Z,996.8
2022-09-13T08:55:21.635Z,996.7
2022-09-13T08:56:22.539Z,996.8
2022-09-13T08:57:23.668Z,996.8
2022-09-13T08:58:25.483Z,996.7
2022-09-13T08:59:26.558Z,996.7
2022-09-13T09:00:27.544Z,996.7
2022-09-13T09:01:28.669Z,996.6
2022-09-13T09:02:29.646Z,996.6
2022-09-13T09:03:30.579Z,996.6
2022-09-13T09:04:31.588Z,996.6
2022-09-13T09:05:32.540Z,996.7
2022-09-13T09:06:33.549Z,996.7
2022-09-13T09:07:34.535Z,996.7
2022-09-13T09:08:35.599Z,996.6
2022-09-13T09:09:36.587Z,996.6
2022-09-13T09:10:37.619Z,996.5
2022-09-13T09:11:38.719Z,996.5
2022-09-13T09:12:40.479Z,996.5
2022-09-13T09:13:41.749Z,996
2022-09-13T09:14:43.642Z,996.3
2022-09-13T09:15:46.216Z,996.4
2022-09-13T09:16:47.760Z,996.3
2022-09-13T09:17:49.824Z,996.4
2022-09-13T09:18:51.589Z,996.3
2022-09-13T09:19:52.519Z,996.4
2022-09-13T09:20:53.539Z,996.4
2022-09-13T09:21:54.578Z,996.4
2022-09-13T09:22:55.519Z,996.4
2022-09-13T09:23:56.600Z,996.4
2022-09-13T09:24:57.599Z,996.5
2022-09-13T09:25:58.519Z,996.5
2022-09-13T09:26:59.607Z,996.5
2022-09-13T09:28:00.560Z,996.5
2022-09-13T09:29:01.919Z,996.5
2022-09-13T09:30:03.814Z,996.4
2022-09-13T09:31:05.569Z,996.4
2022-09-13T09:32:06.579Z,996.5
2022-09-13T09:33:07.559Z,996.5
2022-09-13T09:34:08.579Z,996.5
2022-09-13T09:35:10.599Z,996.5
2022-09-13T09:36:11.561Z,996.4
2022-09-13T09:37:12.619Z,996.5
2022-09-13T09:38:13.619Z,996.4
2022-09-13T09:39:14.539Z,996.5
2022-09-13T09:40:15.592Z,996.5
2022-09-13T09:41:16.520Z,996.5
2022-09-13T09:42:17.609Z,996.5
2022-09-13T09:43:18.560Z,996.4
2022-09-13T09:44:19.727Z,996.3
2022-09-13T09:45:21.929Z,996.4
2022-09-13T09:46:23.749Z,996.3
2022-09-13T09:47:29.192Z,996.3
2022-09-13T09:48:27.607Z,996.3
2022-09-13T09:49:28.539Z,996.3
2022-09-13T09:50:29.602Z,996.3
2022-09-13T09:51:30.681Z,996.3
2022-09-13T09:52:31.551Z,995.7
2022-09-13T09:53:36.781Z,996.1
2022-09-13T09:54:33.719Z,996.2
2022-09-13T09:55:35.645Z,996.2
2022-09-13T09:56:36.587Z,996.2
2022-09-13T09:57:37.659Z,995.7
2022-09-13T09:58:38.702Z,995.6
2022-09-13T09:59:39.817Z,996.1
2022-09-13T10:00:41.703Z,996.2
2022-09-13T10:01:43.774Z,996.3
2022-09-13T10:02:45.653Z,996.2
2022-09-13T10:03:46.721Z,996.3
2022-09-13T10:04:48.620Z,996.2
2022-09-13T10:05:49.759Z,996.2
2022-09-13T10:06:51.601Z,996.2
2022-09-13T10:07:52.959Z,996.2
2022-09-13T10:08:54.727Z,996.1
2022-09-13T10:09:55.639Z,996.1
2022-09-13T10:10:56.759Z,996.1
2022-09-13T10:11:59.548Z,996.1
2022-09-13T10:13:01.540Z,996
2022-09-13T10:14:02.640Z,996
2022-09-13T10:15:03.700Z,996
2022-09-13T10:16:04.562Z,996
2022-09-13T10:17:05.559Z,996
2022-09-13T10:18:16.911Z,995.9
2022-09-13T10:19:11.507Z,995.9
2022-09-13T10:20:10.587Z,995.9
2022-09-13T10:21:11.609Z,995.9
2022-09-13T10:22:12.640Z,995.9
2022-09-13T10:23:13.640Z,995.8
2022-09-13T10:24:14.939Z,995.9
2022-09-13T10:25:16.599Z,995.8
2022-09-13T10:26:17.546Z,995.8
2022-09-13T10:27:18.591Z,995.9
2022-09-13T10:28:19.571Z,995.8
2022-09-13T10:29:20.648Z,995.8
2022-09-13T10:30:21.639Z,995.8
2022-09-13T10:31:22.581Z,995.8
2022-09-13T10:32:23.599Z,995.8
2022-09-13T10:33:24.611Z,995.8
2022-09-13T10:34:25.558Z,995.8
2022-09-13T10:35:26.640Z,995.8
2022-09-13T10:36:48.511Z,995.8
2022-09-13T10:37:28.577Z,995.3
2022-09-13T10:38:29.780Z,995.6
2022-09-13T10:39:31.620Z,995.7
2022-09-13T10:40:32.700Z,995.8
2022-09-13T10:41:33.739Z,995.8
2022-09-13T10:42:35.628Z,995.8
2022-09-13T10:43:39.660Z,995.8
2022-09-13T10:44:40.596Z,995.8
2022-09-13T10:45:41.703Z,995.7
2022-09-13T10:46:42.869Z,995.7
2022-09-13T10:47:44.660Z,995.7
2022-09-13T10:48:45.846Z,995.7
2022-09-13T10:49:47.641Z,995.7
2022-09-13T10:50:48.620Z,995.7
2022-09-13T10:51:49.920Z,995.7
2022-09-13T10:52:51.685Z,995.7
2022-09-13T10:53:52.560Z,995.7
2022-09-13T10:54:53.607Z,995.7
2022-09-13T10:55:54.546Z,995.7
2022-09-13T10:56:55.607Z,995.7
2022-09-13T10:57:56.619Z,995.7
2022-09-13T10:58:57.620Z,995.7
2022-09-13T10:59:58.680Z,995.6
2022-09-13T11:00:59.660Z,995.6
2022-09-13T11:02:00.563Z,995.7
2022-09-13T11:03:01.640Z,995.6
2022-09-13T11:04:02.754Z,995.5
2022-09-13T11:05:04.701Z,995.6
2022-09-13T11:06:05.680Z,995.5
2022-09-13T11:07:07.128Z,995.5
2022-09-13T11:08:09.120Z,995.7
2022-09-13T11:09:10.761Z,995.6
2022-09-13T11:10:11.638Z,995.3
2022-09-13T11:11:12.720Z,995.5
2022-09-13T11:12:13.841Z,995.5
2022-09-13T11:13:15.840Z,995.5
2022-09-13T11:14:17.856Z,995.6
2022-09-13T11:15:19.739Z,995.6
2022-09-13T11:16:20.951Z,995.5
2022-09-13T11:17:22.691Z,995.6
2022-09-13T11:18:23.624Z,995.5
2022-09-13T11:19:24.602Z,995.5
2022-09-13T11:20:25.555Z,995.5
2022-09-13T11:21:26.580Z,995.5
2022-09-13T11:22:27.642Z,995.5
2022-09-13T11:23:28.700Z,995.5
2022-09-13T11:24:29.619Z,995.5
2022-09-13T11:25:30.640Z,995.5
2022-09-13T11:26:33.288Z,995.5
2022-09-13T11:27:32.639Z,995.5
2022-09-13T11:28:34.226Z,995.5
2022-09-13T11:29:35.920Z,995.5
2022-09-13T11:30:37.809Z,995.4
2022-09-13T11:31:39.659Z,995
2022-09-13T11:32:40.623Z,995.3
2022-09-13T11:33:41.619Z,995.4
2022-09-13T11:34:42.599Z,995.4
2022-09-13T11:35:43.727Z,995.5
2022-09-13T11:36:44.641Z,995.3
2022-09-13T11:37:45.629Z,995.4
2022-09-13T11:38:47.015Z,995.4
2022-09-13T11:39:48.857Z,995.3
2022-09-13T11:40:50.661Z,995.3
2022-09-13T11:41:51.639Z,995.4
2022-09-13T11:42:52.640Z,995.4
2022-09-13T11:43:53.659Z,995.3
2022-09-13T11:44:54.601Z,995.3
2022-09-13T11:45:55.822Z,995.3
2022-09-13T11:46:57.635Z,995.4
2022-09-13T11:47:58.924Z,995.3
2022-09-13T11:49:00.740Z,995.2
2022-09-13T11:50:01.619Z,995.3
2022-09-13T11:51:02.687Z,995.3
2022-09-13T11:52:03.779Z,995.3
2022-09-13T11:53:04.600Z,995.3
2022-09-13T11:54:05.660Z,995.3
2022-09-13T11:55:06.720Z,995.3
2022-09-13T11:56:07.633Z,995.2
2022-09-13T11:57:08.700Z,995.3
2022-09-13T11:58:09.580Z,995.2
2022-09-13T11:59:14.991Z,995.2
2022-09-13T12:00:11.699Z,995.2
2022-09-13T12:01:12.695Z,995.2
2022-09-13T12:02:13.781Z,995.2
2022-09-13T12:03:14.817Z,995.1
2022-09-13T12:04:15.679Z,995.2
2022-09-13T12:05:24.503Z,995.2
2022-09-13T12:06:18.707Z,995.3
2022-09-13T12:07:19.641Z,995.2
2022-09-13T12:08:20.627Z,995.2
2022-09-13T12:09:21.600Z,995.2
2022-09-13T12:10:22.719Z,995.2
2022-09-13T12:11:23.739Z,995.1
2022-09-13T12:12:24.659Z,995.2
2022-09-13T12:13:25.755Z,995.1
2022-09-13T12:14:26.680Z,995.1
2022-09-13T12:15:27.700Z,995.1
2022-09-13T12:16:31.007Z,995.1
2022-09-13T12:17:29.668Z,995.1
2022-09-13T12:18:30.929Z,995
2022-09-13T12:19:32.701Z,995
2022-09-13T12:20:33.638Z,995
2022-09-13T12:21:34.753Z,995
2022-09-13T12:22:35.621Z,994.9
2022-09-13T12:23:36.704Z,995
2022-09-13T12:24:37.600Z,994.9
2022-09-13T12:25:38.620Z,994.9
2022-09-13T12:26:39.880Z,994.9
2022-09-13T12:27:41.648Z,994.9
2022-09-13T12:28:42.642Z,994.9
2022-09-13T12:29:43.747Z,994.9
2022-09-13T12:30:44.666Z,994.9
2022-09-13T12:31:45.682Z,994.9
2022-09-13T12:32:46.719Z,994.8
2022-09-13T12:33:47.685Z,994.8
2022-09-13T12:34:48.671Z,994.8
2022-09-13T12:35:50.059Z,994.8
2022-09-13T12:36:51.680Z,994.8
2022-09-13T12:37:52.668Z,994.8
2022-09-13T12:38:53.700Z,994.8
2022-09-13T12:39:54.839Z,994.8
2022-09-13T12:40:55.733Z,994.8
2022-09-13T12:41:56.739Z,994.8
2022-09-13T12:42:57.679Z,994.8
2022-09-13T12:43:58.659Z,994.8
2022-09-13T12:44:59.639Z,994.8
2022-09-13T12:46:00.681Z,994.8
2022-09-13T12:47:01.709Z,994.8
2022-09-13T12:48:02.739Z,994.7
2022-09-13T12:49:03.868Z,994.8
2022-09-13T12:50:21.449Z,994.7
2022-09-13T12:51:07.752Z,994.7
2022-09-13T12:52:08.959Z,994.4
2022-09-13T12:53:10.862Z,994.6
2022-09-13T12:54:13.027Z,994.6
2022-09-13T12:55:29.596Z,994.7
2022-09-13T12:56:16.727Z,994.7
2022-09-13T12:57:17.620Z,994.6
2022-09-13T12:58:18.722Z,994.6
2022-09-13T12:59:19.608Z,994.6
2022-09-13T13:00:20.699Z,994.6
2022-09-13T13:01:21.791Z,994.6
2022-09-13T13:02:22.747Z,994.6
2022-09-13T13:03:23.727Z,994.6
2022-09-13T13:04:24.850Z,994.6
2022-09-13T13:05:25.739Z,994.6
2022-09-13T13:06:26.758Z,994.6
2022-09-13T13:07:27.686Z,994.6
2022-09-13T13:08:28.812Z,994.6
2022-09-13T13:09:30.679Z,994.6
2022-09-13T13:10:31.747Z,994.6
2022-09-13T13:11:32.739Z,994.3
2022-09-13T13:12:33.684Z,994.5
2022-09-13T13:13:34.661Z,994.5
2022-09-13T13:14:35.719Z,994.5
2022-09-13T13:15:36.680Z,994.5
2022-09-13T13:16:37.806Z,994.5
2022-09-13T13:17:39.140Z,994.5
2022-09-13T13:18:40.799Z,994.5
2022-09-13T13:19:43.096Z,994.5
2022-09-13T13:20:44.799Z,994.5
2022-09-13T13:21:45.883Z,994.5